sensor_id;sensor_type;location;lat;lon;timestamp;P1;durP1;ratioP1;P2;durP2;ratioP2
32393;SDS011;18853;45.426;9.206;2023-04-29T00:01:27;8.57;;;5.55;;
32393;SDS011;18853;45.426;9.206;2023-04-29T00:03:53;8.38;;;5.30;;
32393;SDS011;18853;45.426;9.206;2023-04-29T00:06:18;11.45;;;5.93;;
32393;SDS011;18853;45.426;9.206;2023-04-29T00:08:44;15.60;;;6.05;;
32393;SDS011;18853;45.426;9.206;2023-04-29T00:11:10;10.52;;;5.22;;
32393;SDS011;18853;45.426;9.206;2023-04-29T00:13:36;8.70;;;5.50;;
32393;SDS011;18853;45.426;9.206;2023-04-29T00:16:04;8.80;;;5.85;;
32393;SDS011;18853;45.426;9.206;2023-04-29T00:18:31;10.57;;;4.68;;
32393;SDS011;18853;45.426;9.206;2023-04-29T00:20:57;10.95;;;5.53;;
32393;SDS011;18853;45.426;9.206;2023-04-29T00:23:22;11.48;;;5.82;;
32393;SDS011;18853;45.426;9.206;2023-04-29T00:25:48;10.45;;;5.60;;
32393;SDS011;18853;45.426;9.206;2023-04-29T00:28:15;12.75;;;5.45;;
32393;SDS011;18853;45.426;9.206;2023-04-29T00:30:41;9.82;;;5.28;;
32393;SDS011;18853;45.426;9.206;2023-04-29T00:33:07;9.75;;;4.72;;
32393;SDS011;18853;45.426;9.206;2023-04-29T00:35:32;8.65;;;5.32;;
32393;SDS011;18853;45.426;9.206;2023-04-29T00:37:58;9.50;;;5.10;;
32393;SDS011;18853;45.426;9.206;2023-04-29T00:40:24;13.20;;;5.75;;
32393;SDS011;18853;45.426;9.206;2023-04-29T00:42:51;10.27;;;5.18;;
32393;SDS011;18853;45.426;9.206;2023-04-29T00:45:17;12.27;;;5.25;;
32393;SDS011;18853;45.426;9.206;2023-04-29T00:47:42;14.10;;;5.68;;
32393;SDS011;18853;45.426;9.206;2023-04-29T00:50:08;7.88;;;4.93;;
32393;SDS011;18853;45.426;9.206;2023-04-29T00:52:34;9.63;;;5.80;;
32393;SDS011;18853;45.426;9.206;2023-04-29T00:55:01;11.48;;;5.20;;
32393;SDS011;18853;45.426;9.206;2023-04-29T00:57:29;9.15;;;5.65;;
32393;SDS011;18853;45.426;9.206;2023-04-29T00:59:56;10.15;;;5.68;;
32393;SDS011;18853;45.426;9.206;2023-04-29T01:02:23;10.13;;;5.63;;
32393;SDS011;18853;45.426;9.206;2023-04-29T01:04:50;10.88;;;6.00;;
32393;SDS011;18853;45.426;9.206;2023-04-29T01:07:17;11.05;;;5.93;;
32393;SDS011;18853;45.426;9.206;2023-04-29T01:15:21;12.95;;;6.25;;
32393;SDS011;18853;45.426;9.206;2023-04-29T01:20:22;10.38;;;5.28;;
32393;SDS011;18853;45.426;9.206;2023-04-29T01:22:49;8.75;;;5.40;;
32393;SDS011;18853;45.426;9.206;2023-04-29T01:25:15;10.88;;;6.10;;
32393;SDS011;18853;45.426;9.206;2023-04-29T01:27:46;10.88;;;5.40;;
32393;SDS011;18853;45.426;9.206;2023-04-29T01:33:23;9.55;;;6.35;;
32393;SDS011;18853;45.426;9.206;2023-04-29T01:36:13;9.90;;;6.40;;
32393;SDS011;18853;45.426;9.206;2023-04-29T01:41:14;8.45;;;5.65;;
32393;SDS011;18853;45.426;9.206;2023-04-29T01:43:42;10.98;;;6.45;;
32393;SDS011;18853;45.426;9.206;2023-04-29T01:46:15;9.82;;;6.10;;
32393;SDS011;18853;45.426;9.206;2023-04-29T01:48:44;10.05;;;5.78;;
32393;SDS011;18853;45.426;9.206;2023-04-29T01:51:10;9.07;;;5.80;;
32393;SDS011;18853;45.426;9.206;2023-04-29T01:53:36;8.43;;;5.57;;
32393;SDS011;18853;45.426;9.206;2023-04-29T01:56:04;10.40;;;6.70;;
32393;SDS011;18853;45.426;9.206;2023-04-29T01:58:31;8.02;;;5.38;;
32393;SDS011;18853;45.426;9.206;2023-04-29T02:00:57;10.75;;;5.93;;
32393;SDS011;18853;45.426;9.206;2023-04-29T02:03:22;8.02;;;5.57;;
32393;SDS011;18853;45.426;9.206;2023-04-29T02:05:48;8.73;;;5.25;;
32393;SDS011;18853;45.426;9.206;2023-04-29T02:08:15;8.68;;;6.22;;
32393;SDS011;18853;45.426;9.206;2023-04-29T02:10:41;9.13;;;5.85;;
32393;SDS011;18853;45.426;9.206;2023-04-29T02:13:16;10.48;;;5.40;;
32393;SDS011;18853;45.426;9.206;2023-04-29T02:15:42;11.88;;;5.72;;
32393;SDS011;18853;45.426;9.206;2023-04-29T02:18:08;11.02;;;5.75;;
32393;SDS011;18853;45.426;9.206;2023-04-29T02:20:33;8.23;;;5.18;;
32393;SDS011;18853;45.426;9.206;2023-04-29T02:22:59;7.80;;;5.22;;
32393;SDS011;18853;45.426;9.206;2023-04-29T02:25:25;10.68;;;5.03;;
32393;SDS011;18853;45.426;9.206;2023-04-29T02:27:50;8.10;;;5.22;;
32393;SDS011;18853;45.426;9.206;2023-04-29T02:30:16;9.40;;;5.13;;
32393;SDS011;18853;45.426;9.206;2023-04-29T02:32:42;9.43;;;5.07;;
32393;SDS011;18853;45.426;9.206;2023-04-29T02:35:07;10.15;;;5.47;;
32393;SDS011;18853;45.426;9.206;2023-04-29T02:37:33;9.13;;;5.40;;
32393;SDS011;18853;45.426;9.206;2023-04-29T02:39:59;9.45;;;5.93;;
32393;SDS011;18853;45.426;9.206;2023-04-29T02:42:26;9.57;;;5.65;;
32393;SDS011;18853;45.426;9.206;2023-04-29T02:44:52;9.60;;;6.05;;
32393;SDS011;18853;45.426;9.206;2023-04-29T02:47:18;10.48;;;5.75;;
32393;SDS011;18853;45.426;9.206;2023-04-29T02:49:44;9.80;;;5.72;;
32393;SDS011;18853;45.426;9.206;2023-04-29T02:52:09;12.88;;;6.30;;
32393;SDS011;18853;45.426;9.206;2023-04-29T02:54:35;10.55;;;5.57;;
32393;SDS011;18853;45.426;9.206;2023-04-29T02:57:01;10.40;;;5.68;;
32393;SDS011;18853;45.426;9.206;2023-04-29T02:59:27;10.13;;;5.90;;
32393;SDS011;18853;45.426;9.206;2023-04-29T03:01:53;11.55;;;5.72;;
32393;SDS011;18853;45.426;9.206;2023-04-29T03:04:19;9.07;;;6.07;;
32393;SDS011;18853;45.426;9.206;2023-04-29T03:06:45;12.63;;;5.72;;
32393;SDS011;18853;45.426;9.206;2023-04-29T03:09:10;8.60;;;5.70;;
32393;SDS011;18853;45.426;9.206;2023-04-29T03:11:37;7.15;;;5.38;;
32393;SDS011;18853;45.426;9.206;2023-04-29T03:14:03;8.27;;;5.95;;
32393;SDS011;18853;45.426;9.206;2023-04-29T03:16:29;8.38;;;6.22;;
32393;SDS011;18853;45.426;9.206;2023-04-29T03:18:55;9.52;;;5.97;;
32393;SDS011;18853;45.426;9.206;2023-04-29T03:21:22;10.77;;;5.78;;
32393;SDS011;18853;45.426;9.206;2023-04-29T03:23:49;9.15;;;5.50;;
32393;SDS011;18853;45.426;9.206;2023-04-29T03:26:15;10.27;;;5.80;;
32393;SDS011;18853;45.426;9.206;2023-04-29T03:28:41;9.60;;;5.90;;
32393;SDS011;18853;45.426;9.206;2023-04-29T03:31:06;10.88;;;5.22;;
32393;SDS011;18853;45.426;9.206;2023-04-29T03:33:32;9.82;;;6.47;;
32393;SDS011;18853;45.426;9.206;2023-04-29T03:35:58;13.95;;;5.93;;
32393;SDS011;18853;45.426;9.206;2023-04-29T03:38:23;12.15;;;6.20;;
32393;SDS011;18853;45.426;9.206;2023-04-29T03:40:52;9.73;;;5.88;;
32393;SDS011;18853;45.426;9.206;2023-04-29T03:43:18;7.90;;;6.22;;
32393;SDS011;18853;45.426;9.206;2023-04-29T03:45:43;11.07;;;6.03;;
32393;SDS011;18853;45.426;9.206;2023-04-29T03:48:09;9.98;;;6.70;;
32393;SDS011;18853;45.426;9.206;2023-04-29T03:50:36;10.70;;;6.63;;
32393;SDS011;18853;45.426;9.206;2023-04-29T03:53:02;9.90;;;6.40;;
32393;SDS011;18853;45.426;9.206;2023-04-29T03:55:27;11.60;;;6.50;;
32393;SDS011;18853;45.426;9.206;2023-04-29T03:57:53;10.82;;;7.40;;
32393;SDS011;18853;45.426;9.206;2023-04-29T04:00:19;12.65;;;7.18;;
32393;SDS011;18853;45.426;9.206;2023-04-29T04:02:45;10.75;;;6.70;;
32393;SDS011;18853;45.426;9.206;2023-04-29T04:05:11;10.25;;;7.15;;
32393;SDS011;18853;45.426;9.206;2023-04-29T04:07:37;10.05;;;6.95;;
32393;SDS011;18853;45.426;9.206;2023-04-29T04:10:02;10.77;;;6.60;;
32393;SDS011;18853;45.426;9.206;2023-04-29T04:12:28;10.48;;;6.82;;
32393;SDS011;18853;45.426;9.206;2023-04-29T04:14:54;11.50;;;6.90;;
32393;SDS011;18853;45.426;9.206;2023-04-29T04:17:21;9.93;;;6.95;;
32393;SDS011;18853;45.426;9.206;2023-04-29T04:19:46;9.25;;;6.70;;
32393;SDS011;18853;45.426;9.206;2023-04-29T04:22:12;11.20;;;7.57;;
32393;SDS011;18853;45.426;9.206;2023-04-29T04:24:38;9.70;;;6.90;;
32393;SDS011;18853;45.426;9.206;2023-04-29T04:27:03;10.00;;;6.00;;
32393;SDS011;18853;45.426;9.206;2023-04-29T04:29:29;9.20;;;6.72;;
32393;SDS011;18853;45.426;9.206;2023-04-29T04:31:55;9.23;;;6.47;;
32393;SDS011;18853;45.426;9.206;2023-04-29T04:34:21;13.80;;;7.07;;
32393;SDS011;18853;45.426;9.206;2023-04-29T04:36:46;11.65;;;6.85;;
32393;SDS011;18853;45.426;9.206;2023-04-29T04:39:12;13.57;;;6.53;;
32393;SDS011;18853;45.426;9.206;2023-04-29T04:41:37;10.90;;;6.40;;
32393;SDS011;18853;45.426;9.206;2023-04-29T04:44:03;9.82;;;6.40;;
32393;SDS011;18853;45.426;9.206;2023-04-29T04:46:29;9.93;;;6.38;;
32393;SDS011;18853;45.426;9.206;2023-04-29T04:48:55;10.30;;;6.40;;
32393;SDS011;18853;45.426;9.206;2023-04-29T04:51:21;13.32;;;6.50;;
32393;SDS011;18853;45.426;9.206;2023-04-29T04:53:46;10.65;;;6.70;;
32393;SDS011;18853;45.426;9.206;2023-04-29T04:56:12;11.18;;;7.97;;
32393;SDS011;18853;45.426;9.206;2023-04-29T04:58:38;10.98;;;9.30;;
32393;SDS011;18853;45.426;9.206;2023-04-29T05:01:04;15.15;;;11.00;;
32393;SDS011;18853;45.426;9.206;2023-04-29T05:03:29;17.00;;;12.43;;
32393;SDS011;18853;45.426;9.206;2023-04-29T05:05:56;17.15;;;12.20;;
32393;SDS011;18853;45.426;9.206;2023-04-29T05:08:23;21.15;;;15.68;;
32393;SDS011;18853;45.426;9.206;2023-04-29T05:10:49;23.42;;;15.70;;
32393;SDS011;18853;45.426;9.206;2023-04-29T05:13:15;19.42;;;13.77;;
32393;SDS011;18853;45.426;9.206;2023-04-29T05:15:42;20.08;;;12.98;;
32393;SDS011;18853;45.426;9.206;2023-04-29T05:18:08;15.00;;;10.38;;
32393;SDS011;18853;45.426;9.206;2023-04-29T05:20:35;13.05;;;9.10;;
32393;SDS011;18853;45.426;9.206;2023-04-29T05:23:01;11.80;;;8.43;;
32393;SDS011;18853;45.426;9.206;2023-04-29T05:25:27;11.30;;;7.47;;
32393;SDS011;18853;45.426;9.206;2023-04-29T05:27:53;10.38;;;7.35;;
32393;SDS011;18853;45.426;9.206;2023-04-29T05:30:19;10.93;;;7.10;;
32393;SDS011;18853;45.426;9.206;2023-04-29T05:32:45;8.73;;;6.35;;
32393;SDS011;18853;45.426;9.206;2023-04-29T05:35:11;10.95;;;6.72;;
32393;SDS011;18853;45.426;9.206;2023-04-29T05:37:37;12.48;;;6.47;;
32393;SDS011;18853;45.426;9.206;2023-04-29T05:40:03;8.30;;;6.03;;
32393;SDS011;18853;45.426;9.206;2023-04-29T05:42:29;11.20;;;6.68;;
32393;SDS011;18853;45.426;9.206;2023-04-29T05:44:54;10.02;;;6.65;;
32393;SDS011;18853;45.426;9.206;2023-04-29T05:47:20;10.65;;;6.20;;
32393;SDS011;18853;45.426;9.206;2023-04-29T05:49:46;9.85;;;7.03;;
32393;SDS011;18853;45.426;9.206;2023-04-29T05:52:13;9.63;;;6.30;;
32393;SDS011;18853;45.426;9.206;2023-04-29T05:54:38;10.88;;;6.97;;
32393;SDS011;18853;45.426;9.206;2023-04-29T05:57:04;12.68;;;7.57;;
32393;SDS011;18853;45.426;9.206;2023-04-29T05:59:30;10.80;;;7.20;;
32393;SDS011;18853;45.426;9.206;2023-04-29T06:01:56;17.38;;;13.10;;
32393;SDS011;18853;45.426;9.206;2023-04-29T06:04:23;10.75;;;8.23;;
32393;SDS011;18853;45.426;9.206;2023-04-29T06:06:49;12.88;;;9.05;;
32393;SDS011;18853;45.426;9.206;2023-04-29T06:09:17;15.95;;;8.77;;
32393;SDS011;18853;45.426;9.206;2023-04-29T06:11:45;11.90;;;7.97;;
32393;SDS011;18853;45.426;9.206;2023-04-29T06:14:11;10.98;;;8.77;;
32393;SDS011;18853;45.426;9.206;2023-04-29T06:16:38;13.68;;;9.23;;
32393;SDS011;18853;45.426;9.206;2023-04-29T06:19:04;13.60;;;8.32;;
32393;SDS011;18853;45.426;9.206;2023-04-29T06:21:30;12.00;;;8.80;;
32393;SDS011;18853;45.426;9.206;2023-04-29T06:23:56;14.00;;;9.35;;
32393;SDS011;18853;45.426;9.206;2023-04-29T06:26:22;16.95;;;9.32;;
32393;SDS011;18853;45.426;9.206;2023-04-29T06:28:48;14.68;;;9.90;;
32393;SDS011;18853;45.426;9.206;2023-04-29T06:31:14;15.15;;;10.32;;
32393;SDS011;18853;45.426;9.206;2023-04-29T06:33:40;13.90;;;10.10;;
32393;SDS011;18853;45.426;9.206;2023-04-29T06:36:06;15.40;;;9.60;;
32393;SDS011;18853;45.426;9.206;2023-04-29T06:38:32;14.07;;;10.57;;
32393;SDS011;18853;45.426;9.206;2023-04-29T06:40:58;14.48;;;10.68;;
32393;SDS011;18853;45.426;9.206;2023-04-29T06:43:25;14.60;;;10.98;;
32393;SDS011;18853;45.426;9.206;2023-04-29T06:45:51;13.38;;;10.30;;
32393;SDS011;18853;45.426;9.206;2023-04-29T06:48:17;14.63;;;10.75;;
32393;SDS011;18853;45.426;9.206;2023-04-29T06:53:22;17.70;;;11.00;;
32393;SDS011;18853;45.426;9.206;2023-04-29T06:55:48;15.10;;;11.13;;
32393;SDS011;18853;45.426;9.206;2023-04-29T06:58:15;16.13;;;11.52;;
32393;SDS011;18853;45.426;9.206;2023-04-29T07:00:44;15.27;;;11.15;;
32393;SDS011;18853;45.426;9.206;2023-04-29T07:03:11;16.95;;;11.02;;
32393;SDS011;18853;45.426;9.206;2023-04-29T07:05:37;16.60;;;11.75;;
32393;SDS011;18853;45.426;9.206;2023-04-29T07:08:10;14.55;;;10.63;;
32393;SDS011;18853;45.426;9.206;2023-04-29T07:10:37;14.07;;;9.77;;
32393;SDS011;18853;45.426;9.206;2023-04-29T07:13:03;15.95;;;9.23;;
32393;SDS011;18853;45.426;9.206;2023-04-29T07:15:29;12.80;;;9.60;;
32393;SDS011;18853;45.426;9.206;2023-04-29T07:17:57;13.73;;;8.68;;
32393;SDS011;18853;45.426;9.206;2023-04-29T07:20:24;11.55;;;8.55;;
32393;SDS011;18853;45.426;9.206;2023-04-29T07:22:51;12.43;;;9.32;;
32393;SDS011;18853;45.426;9.206;2023-04-29T07:25:17;14.30;;;10.05;;
32393;SDS011;18853;45.426;9.206;2023-04-29T07:27:43;14.07;;;10.15;;
32393;SDS011;18853;45.426;9.206;2023-04-29T07:30:08;15.18;;;11.07;;
32393;SDS011;18853;45.426;9.206;2023-04-29T07:32:34;13.93;;;10.18;;
32393;SDS011;18853;45.426;9.206;2023-04-29T07:35:01;16.65;;;11.70;;
32393;SDS011;18853;45.426;9.206;2023-04-29T07:37:27;12.85;;;10.57;;
32393;SDS011;18853;45.426;9.206;2023-04-29T07:39:52;15.73;;;11.52;;
32393;SDS011;18853;45.426;9.206;2023-04-29T07:42:18;14.32;;;11.98;;
32393;SDS011;18853;45.426;9.206;2023-04-29T07:44:44;19.70;;;12.25;;
32393;SDS011;18853;45.426;9.206;2023-04-29T07:47:10;15.80;;;11.80;;
32393;SDS011;18853;45.426;9.206;2023-04-29T07:49:36;19.92;;;13.90;;
32393;SDS011;18853;45.426;9.206;2023-04-29T07:52:05;17.15;;;11.65;;
32393;SDS011;18853;45.426;9.206;2023-04-29T07:54:33;15.27;;;11.07;;
32393;SDS011;18853;45.426;9.206;2023-04-29T07:57:02;15.65;;;11.75;;
32393;SDS011;18853;45.426;9.206;2023-04-29T07:59:29;18.60;;;11.60;;
32393;SDS011;18853;45.426;9.206;2023-04-29T08:01:55;15.88;;;10.80;;
32393;SDS011;18853;45.426;9.206;2023-04-29T08:04:21;16.23;;;11.52;;
32393;SDS011;18853;45.426;9.206;2023-04-29T08:06:47;15.35;;;10.48;;
32393;SDS011;18853;45.426;9.206;2023-04-29T08:09:14;15.07;;;10.73;;
32393;SDS011;18853;45.426;9.206;2023-04-29T08:11:40;15.75;;;11.82;;
32393;SDS011;18853;45.426;9.206;2023-04-29T08:14:05;14.77;;;11.38;;
32393;SDS011;18853;45.426;9.206;2023-04-29T08:16:31;16.88;;;12.07;;
32393;SDS011;18853;45.426;9.206;2023-04-29T08:18:57;13.57;;;10.63;;
32393;SDS011;18853;45.426;9.206;2023-04-29T08:21:23;15.23;;;11.15;;
32393;SDS011;18853;45.426;9.206;2023-04-29T08:23:48;15.00;;;10.65;;
32393;SDS011;18853;45.426;9.206;2023-04-29T08:26:14;15.07;;;10.35;;
32393;SDS011;18853;45.426;9.206;2023-04-29T08:28:40;15.23;;;10.55;;
32393;SDS011;18853;45.426;9.206;2023-04-29T08:31:05;15.48;;;11.40;;
32393;SDS011;18853;45.426;9.206;2023-04-29T08:33:34;17.33;;;11.63;;
32393;SDS011;18853;45.426;9.206;2023-04-29T08:36:00;18.85;;;11.95;;
32393;SDS011;18853;45.426;9.206;2023-04-29T08:38:28;17.35;;;11.60;;
32393;SDS011;18853;45.426;9.206;2023-04-29T08:40:54;12.30;;;9.70;;
32393;SDS011;18853;45.426;9.206;2023-04-29T08:43:20;15.13;;;9.95;;
32393;SDS011;18853;45.426;9.206;2023-04-29T08:45:50;12.57;;;9.68;;
32393;SDS011;18853;45.426;9.206;2023-04-29T08:48:16;15.48;;;10.20;;
32393;SDS011;18853;45.426;9.206;2023-04-29T08:50:42;17.73;;;9.82;;
32393;SDS011;18853;45.426;9.206;2023-04-29T08:53:10;12.80;;;9.77;;
32393;SDS011;18853;45.426;9.206;2023-04-29T08:55:44;13.50;;;9.55;;
32393;SDS011;18853;45.426;9.206;2023-04-29T08:58:11;12.98;;;9.68;;
32393;SDS011;18853;45.426;9.206;2023-04-29T09:00:41;12.82;;;9.10;;
32393;SDS011;18853;45.426;9.206;2023-04-29T09:03:29;11.70;;;8.85;;
32393;SDS011;18853;45.426;9.206;2023-04-29T09:06:01;13.32;;;9.07;;
32393;SDS011;18853;45.426;9.206;2023-04-29T09:08:29;14.10;;;9.38;;
32393;SDS011;18853;45.426;9.206;2023-04-29T09:10:56;16.63;;;10.90;;
32393;SDS011;18853;45.426;9.206;2023-04-29T09:13:27;13.02;;;9.52;;
32393;SDS011;18853;45.426;9.206;2023-04-29T09:15:54;11.95;;;8.73;;
32393;SDS011;18853;45.426;9.206;2023-04-29T09:21:19;15.82;;;9.60;;
32393;SDS011;18853;45.426;9.206;2023-04-29T09:23:53;14.00;;;9.35;;
32393;SDS011;18853;45.426;9.206;2023-04-29T09:26:23;11.80;;;9.88;;
32393;SDS011;18853;45.426;9.206;2023-04-29T09:31:38;12.55;;;9.55;;
32393;SDS011;18853;45.426;9.206;2023-04-29T09:34:05;15.00;;;10.15;;
32393;SDS011;18853;45.426;9.206;2023-04-29T09:36:38;13.27;;;8.38;;
32393;SDS011;18853;45.426;9.206;2023-04-29T09:44:40;11.10;;;8.23;;
32393;SDS011;18853;45.426;9.206;2023-04-29T09:47:07;12.32;;;8.65;;
32393;SDS011;18853;45.426;9.206;2023-04-29T09:49:35;13.52;;;8.90;;
32393;SDS011;18853;45.426;9.206;2023-04-29T09:52:11;11.75;;;8.48;;
32393;SDS011;18853;45.426;9.206;2023-04-29T09:54:39;10.18;;;8.75;;
32393;SDS011;18853;45.426;9.206;2023-04-29T09:57:06;11.93;;;8.20;;
32393;SDS011;18853;45.426;9.206;2023-04-29T09:59:33;10.57;;;8.20;;
32393;SDS011;18853;45.426;9.206;2023-04-29T10:02:01;9.88;;;8.40;;
32393;SDS011;18853;45.426;9.206;2023-04-29T10:05:01;13.98;;;8.93;;
32393;SDS011;18853;45.426;9.206;2023-04-29T10:07:27;11.68;;;8.25;;
32393;SDS011;18853;45.426;9.206;2023-04-29T10:09:53;14.75;;;9.88;;
32393;SDS011;18853;45.426;9.206;2023-04-29T10:12:20;10.57;;;8.13;;
32393;SDS011;18853;45.426;9.206;2023-04-29T10:15:00;13.45;;;8.35;;
32393;SDS011;18853;45.426;9.206;2023-04-29T10:17:35;12.65;;;9.20;;
32393;SDS011;18853;45.426;9.206;2023-04-29T10:20:10;11.73;;;9.65;;
32393;SDS011;18853;45.426;9.206;2023-04-29T10:22:47;14.73;;;10.32;;
32393;SDS011;18853;45.426;9.206;2023-04-29T10:25:14;13.23;;;9.88;;
32393;SDS011;18853;45.426;9.206;2023-04-29T10:27:41;12.75;;;10.18;;
32393;SDS011;18853;45.426;9.206;2023-04-29T10:30:10;14.02;;;10.50;;
32393;SDS011;18853;45.426;9.206;2023-04-29T10:32:41;12.55;;;8.82;;
32393;SDS011;18853;45.426;9.206;2023-04-29T10:35:08;13.40;;;9.90;;
32393;SDS011;18853;45.426;9.206;2023-04-29T10:37:39;13.25;;;9.82;;
32393;SDS011;18853;45.426;9.206;2023-04-29T10:42:49;13.35;;;9.70;;
32393;SDS011;18853;45.426;9.206;2023-04-29T10:53:13;11.85;;;9.25;;
32393;SDS011;18853;45.426;9.206;2023-04-29T10:55:46;13.57;;;9.35;;
32393;SDS011;18853;45.426;9.206;2023-04-29T10:58:36;13.00;;;8.82;;
32393;SDS011;18853;45.426;9.206;2023-04-29T11:01:10;13.27;;;11.40;;
32393;SDS011;18853;45.426;9.206;2023-04-29T11:03:55;11.52;;;8.60;;
32393;SDS011;18853;45.426;9.206;2023-04-29T11:06:37;11.05;;;7.60;;
32393;SDS011;18853;45.426;9.206;2023-04-29T11:14:13;13.70;;;9.02;;
32393;SDS011;18853;45.426;9.206;2023-04-29T11:17:13;11.20;;;7.85;;
32393;SDS011;18853;45.426;9.206;2023-04-29T11:19:34;15.45;;;9.10;;
32393;SDS011;18853;45.426;9.206;2023-04-29T11:22:11;16.48;;;9.65;;
32393;SDS011;18853;45.426;9.206;2023-04-29T11:27:14;11.02;;;8.57;;
32393;SDS011;18853;45.426;9.206;2023-04-29T11:29:40;11.73;;;9.60;;
32393;SDS011;18853;45.426;9.206;2023-04-29T11:32:06;10.65;;;7.80;;
32393;SDS011;18853;45.426;9.206;2023-04-29T11:34:32;15.93;;;9.43;;
32393;SDS011;18853;45.426;9.206;2023-04-29T11:36:58;12.60;;;8.00;;
32393;SDS011;18853;45.426;9.206;2023-04-29T11:39:25;13.48;;;8.45;;
32393;SDS011;18853;45.426;9.206;2023-04-29T11:41:51;16.27;;;9.85;;
32393;SDS011;18853;45.426;9.206;2023-04-29T11:44:27;13.60;;;8.88;;
32393;SDS011;18853;45.426;9.206;2023-04-29T11:46:52;30.52;;;20.25;;
32393;SDS011;18853;45.426;9.206;2023-04-29T11:49:34;14.40;;;10.07;;
32393;SDS011;18853;45.426;9.206;2023-04-29T11:52:01;30.55;;;25.58;;
32393;SDS011;18853;45.426;9.206;2023-04-29T11:54:30;33.80;;;24.83;;
32393;SDS011;18853;45.426;9.206;2023-04-29T11:56:59;12.82;;;8.13;;
32393;SDS011;18853;45.426;9.206;2023-04-29T11:59:29;10.30;;;7.95;;
32393;SDS011;18853;45.426;9.206;2023-04-29T12:01:59;14.38;;;9.15;;
32393;SDS011;18853;45.426;9.206;2023-04-29T12:04:25;34.38;;;24.30;;
32393;SDS011;18853;45.426;9.206;2023-04-29T12:06:51;36.20;;;25.70;;
32393;SDS011;18853;45.426;9.206;2023-04-29T12:09:20;36.10;;;25.35;;
32393;SDS011;18853;45.426;9.206;2023-04-29T12:11:45;16.00;;;12.05;;
32393;SDS011;18853;45.426;9.206;2023-04-29T12:14:14;24.35;;;16.15;;
32393;SDS011;18853;45.426;9.206;2023-04-29T12:16:40;13.63;;;9.93;;
32393;SDS011;18853;45.426;9.206;2023-04-29T12:19:06;17.60;;;12.55;;
32393;SDS011;18853;45.426;9.206;2023-04-29T12:21:34;11.75;;;7.80;;
32393;SDS011;18853;45.426;9.206;2023-04-29T12:24:01;11.57;;;8.73;;
32393;SDS011;18853;45.426;9.206;2023-04-29T12:26:27;12.40;;;7.68;;
32393;SDS011;18853;45.426;9.206;2023-04-29T12:28:55;13.25;;;8.80;;
32393;SDS011;18853;45.426;9.206;2023-04-29T12:31:22;11.40;;;8.55;;
32393;SDS011;18853;45.426;9.206;2023-04-29T12:33:48;12.68;;;9.38;;
32393;SDS011;18853;45.426;9.206;2023-04-29T12:36:17;12.88;;;9.63;;
32393;SDS011;18853;45.426;9.206;2023-04-29T12:38:43;11.65;;;9.38;;
32393;SDS011;18853;45.426;9.206;2023-04-29T12:41:11;13.93;;;8.52;;
32393;SDS011;18853;45.426;9.206;2023-04-29T12:43:41;18.02;;;11.02;;
32393;SDS011;18853;45.426;9.206;2023-04-29T12:46:08;16.75;;;12.40;;
32393;SDS011;18853;45.426;9.206;2023-04-29T12:48:39;14.07;;;10.55;;
32393;SDS011;18853;45.426;9.206;2023-04-29T12:51:09;12.75;;;10.40;;
32393;SDS011;18853;45.426;9.206;2023-04-29T12:53:35;15.13;;;9.98;;
32393;SDS011;18853;45.426;9.206;2023-04-29T12:56:01;12.63;;;9.45;;
32393;SDS011;18853;45.426;9.206;2023-04-29T12:58:27;12.57;;;9.35;;
32393;SDS011;18853;45.426;9.206;2023-04-29T13:00:54;11.55;;;9.35;;
32393;SDS011;18853;45.426;9.206;2023-04-29T13:03:20;13.02;;;9.48;;
32393;SDS011;18853;45.426;9.206;2023-04-29T13:05:45;13.80;;;9.93;;
32393;SDS011;18853;45.426;9.206;2023-04-29T13:08:15;12.45;;;8.88;;
32393;SDS011;18853;45.426;9.206;2023-04-29T13:10:41;14.15;;;10.15;;
32393;SDS011;18853;45.426;9.206;2023-04-29T13:13:06;13.13;;;9.98;;
32393;SDS011;18853;45.426;9.206;2023-04-29T13:15:34;14.30;;;10.05;;
32393;SDS011;18853;45.426;9.206;2023-04-29T13:18:00;11.38;;;9.20;;
32393;SDS011;18853;45.426;9.206;2023-04-29T13:20:26;12.75;;;9.88;;
32393;SDS011;18853;45.426;9.206;2023-04-29T13:22:52;12.70;;;10.13;;
32393;SDS011;18853;45.426;9.206;2023-04-29T13:25:18;14.27;;;8.75;;
32393;SDS011;18853;45.426;9.206;2023-04-29T13:27:44;11.63;;;9.32;;
32393;SDS011;18853;45.426;9.206;2023-04-29T13:30:10;10.88;;;8.20;;
32393;SDS011;18853;45.426;9.206;2023-04-29T13:32:35;12.10;;;8.10;;
32393;SDS011;18853;45.426;9.206;2023-04-29T13:35:03;16.52;;;8.50;;
32393;SDS011;18853;45.426;9.206;2023-04-29T13:37:29;12.85;;;8.18;;
32393;SDS011;18853;45.426;9.206;2023-04-29T13:39:54;11.63;;;8.98;;
32393;SDS011;18853;45.426;9.206;2023-04-29T13:42:20;47.10;;;36.55;;
32393;SDS011;18853;45.426;9.206;2023-04-29T13:44:46;27.15;;;20.98;;
32393;SDS011;18853;45.426;9.206;2023-04-29T13:47:13;32.85;;;25.05;;
32393;SDS011;18853;45.426;9.206;2023-04-29T13:49:39;11.52;;;8.48;;
32393;SDS011;18853;45.426;9.206;2023-04-29T13:52:05;12.50;;;8.10;;
32393;SDS011;18853;45.426;9.206;2023-04-29T13:54:32;12.02;;;8.38;;
32393;SDS011;18853;45.426;9.206;2023-04-29T13:56:58;17.52;;;11.52;;
32393;SDS011;18853;45.426;9.206;2023-04-29T13:59:27;11.50;;;8.43;;
32393;SDS011;18853;45.426;9.206;2023-04-29T14:01:53;18.00;;;13.60;;
32393;SDS011;18853;45.426;9.206;2023-04-29T14:04:19;11.50;;;8.77;;
32393;SDS011;18853;45.426;9.206;2023-04-29T14:06:45;13.13;;;9.23;;
32393;SDS011;18853;45.426;9.206;2023-04-29T14:09:10;13.18;;;9.77;;
32393;SDS011;18853;45.426;9.206;2023-04-29T14:11:36;18.00;;;11.27;;
32393;SDS011;18853;45.426;9.206;2023-04-29T14:14:02;14.57;;;11.43;;
32393;SDS011;18853;45.426;9.206;2023-04-29T14:16:28;86.22;;;68.50;;
32393;SDS011;18853;45.426;9.206;2023-04-29T14:18:54;57.25;;;44.85;;
32393;SDS011;18853;45.426;9.206;2023-04-29T14:21:20;34.83;;;27.75;;
32393;SDS011;18853;45.426;9.206;2023-04-29T14:23:49;19.35;;;14.45;;
32393;SDS011;18853;45.426;9.206;2023-04-29T14:26:15;16.60;;;11.82;;
32393;SDS011;18853;45.426;9.206;2023-04-29T14:28:40;18.45;;;13.13;;
32393;SDS011;18853;45.426;9.206;2023-04-29T14:31:06;17.40;;;12.50;;
32393;SDS011;18853;45.426;9.206;2023-04-29T14:33:32;11.75;;;9.30;;
32393;SDS011;18853;45.426;9.206;2023-04-29T14:35:58;13.13;;;9.38;;
32393;SDS011;18853;45.426;9.206;2023-04-29T14:38:25;11.32;;;8.15;;
32393;SDS011;18853;45.426;9.206;2023-04-29T14:40:51;10.68;;;7.97;;
32393;SDS011;18853;45.426;9.206;2023-04-29T14:43:16;11.32;;;8.13;;
32393;SDS011;18853;45.426;9.206;2023-04-29T14:45:42;11.30;;;7.70;;
32393;SDS011;18853;45.426;9.206;2023-04-29T14:48:09;13.98;;;8.07;;
32393;SDS011;18853;45.426;9.206;2023-04-29T14:50:35;10.85;;;8.35;;
32393;SDS011;18853;45.426;9.206;2023-04-29T14:53:01;13.27;;;8.15;;
32393;SDS011;18853;45.426;9.206;2023-04-29T14:55:27;9.73;;;7.47;;
32393;SDS011;18853;45.426;9.206;2023-04-29T14:57:53;9.50;;;7.13;;
32393;SDS011;18853;45.426;9.206;2023-04-29T15:00:18;9.73;;;7.15;;
32393;SDS011;18853;45.426;9.206;2023-04-29T15:02:45;13.73;;;8.43;;
32393;SDS011;18853;45.426;9.206;2023-04-29T15:05:11;9.95;;;7.93;;
32393;SDS011;18853;45.426;9.206;2023-04-29T15:07:36;11.07;;;9.05;;
32393;SDS011;18853;45.426;9.206;2023-04-29T15:10:02;14.13;;;8.52;;
32393;SDS011;18853;45.426;9.206;2023-04-29T15:12:30;13.98;;;8.45;;
32393;SDS011;18853;45.426;9.206;2023-04-29T15:14:56;13.40;;;10.88;;
32393;SDS011;18853;45.426;9.206;2023-04-29T15:17:21;15.30;;;10.98;;
32393;SDS011;18853;45.426;9.206;2023-04-29T15:19:47;13.07;;;9.13;;